Tuuli — DJ7930 — position and weather

sailwx.info

Track history (hours):
 
Tides and Currents Weather Stations Pressure Air Temp Water Temp Dewpoint Dewpoint Depression Visibility Wind Speed Wind Dir Waves Ship Positions

Tuuli

Last reported at 2017-Sep-02 19:23 UTC. Time now 2017-Nov-24 02:07 UTC.
Position N 28°18' W 016°11'.
Warning: this ship's position is months out of date.

Length 9 m.

Type: Sailing vessel. MMSI: 211704920.

Date/timePositionNaut miles runAvg speedWind from/ knotsBaromVisibWave heightAir tempDewpointWater temp
2017-Sep-02 19:23N 28°18' W 016°11'4 6.2
2017-Sep-02 18:48N 28°19' W 016°07'2 6.0
2017-Sep-02 18:28N 28°19' W 016°04'3 5.8
2017-Sep-02 17:58N 28°20' W 016°01'3 5.9
2017-Sep-02 17:28N 28°21' W 015°58'2 4.9
2017-Sep-02 16:58N 28°21' W 015°55'12 4.8
2017-Sep-02 14:22N 28°18' W 015°42'3 5.4
2017-Sep-02 13:54N 28°17' W 015°39'2 5.6
2017-Sep-02 13:30N 28°16' W 015°37'2 4.7
2017-Sep-02 13:00N 28°15' W 015°35'2 5.0
2017-Sep-02 12:30N 28°14' W 015°32'2 4.5
2017-Sep-02 12:00N 28°13' W 015°29'1 2.9
2017-Sep-02 11:30N 28°13' W 015°28'2 3.0
2017-Sep-02 10:59N 28°13' W 015°26'1 2.6
2017-Sep-02 10:30N 28°12' W 015°25'2 3.1
2017-Sep-02 10:00N 28°12' W 015°23'2 3.5
2017-Sep-02 09:30N 28°10' W 015°23'1 2.8
2017-Sep-02 09:00N 28°09' W 015°23'1 2.7
2017-Sep-02 08:30N 28°08' W 015°22'1 2.7
2017-Sep-02 08:00N 28°08' W 015°23'0 0.8
2017-Sep-02 07:30N 28°08' W 015°23'1 2.3
2017-Sep-02 06:59N 28°07' W 015°24'1 2.2
2017-Sep-02 06:28N 28°08' W 015°25'0 0.0
2017-Sep-01 07:16N 28°08' W 015°26'0 0.1
2017-Sep-01 06:59N 28°08' W 015°25'0 0.1
2017-Sep-01 06:29N 28°08' W 015°25'0 0.0
2017-Sep-01 05:59N 28°08' W 015°25'  
Track history (hours):
 
Tides and Currents Weather Stations Pressure Air Temp Water Temp Dewpoint Dewpoint Depression Visibility Wind Speed Wind Dir Waves Ship Positions

Tuuli

Last reported at 2017-Sep-02 19:23 UTC. Time now 2017-Nov-24 02:07 UTC.
Position N 28°18' W 016°11'.
Warning: this ship's position is months out of date.

Length 9 m.

Type: Sailing vessel. MMSI: 211704920.

Date/timePositionNaut miles runAvg speedWind from/ knotsBaromVisibWave heightAir tempDewpointWater temp
2017-Sep-02 19:23N 28°18' W 016°11'4 6.2
2017-Sep-02 18:48N 28°19' W 016°07'2 6.0
2017-Sep-02 18:28N 28°19' W 016°04'3 5.8
2017-Sep-02 17:58N 28°20' W 016°01'3 5.9
2017-Sep-02 17:28N 28°21' W 015°58'2 4.9
2017-Sep-02 16:58N 28°21' W 015°55'12 4.8
2017-Sep-02 14:22N 28°18' W 015°42'3 5.4
2017-Sep-02 13:54N 28°17' W 015°39'2 5.6
2017-Sep-02 13:30N 28°16' W 015°37'2 4.7
2017-Sep-02 13:00N 28°15' W 015°35'2 5.0
2017-Sep-02 12:30N 28°14' W 015°32'2 4.5
2017-Sep-02 12:00N 28°13' W 015°29'1 2.9
2017-Sep-02 11:30N 28°13' W 015°28'2 3.0
2017-Sep-02 10:59N 28°13' W 015°26'1 2.6
2017-Sep-02 10:30N 28°12' W 015°25'2 3.1
2017-Sep-02 10:00N 28°12' W 015°23'2 3.5
2017-Sep-02 09:30N 28°10' W 015°23'1 2.8
2017-Sep-02 09:00N 28°09' W 015°23'1 2.7
2017-Sep-02 08:30N 28°08' W 015°22'1 2.7
2017-Sep-02 08:00N 28°08' W 015°23'0 0.8
2017-Sep-02 07:30N 28°08' W 015°23'1 2.3
2017-Sep-02 06:59N 28°07' W 015°24'1 2.2
2017-Sep-02 06:28N 28°08' W 015°25'0 0.0
2017-Sep-01 07:16N 28°08' W 015°26'0 0.1
2017-Sep-01 06:59N 28°08' W 015°25'0 0.1
2017-Sep-01 06:29N 28°08' W 015°25'0 0.0
2017-Sep-01 05:59N 28°08' W 015°25'  

Dump ship's entire track history